createdAt,value
2018-10-06T00:01:27.229Z,100523.35
2018-10-06T00:03:57.858Z,100513.08
2018-10-06T00:06:28.007Z,100520.30
2018-10-06T00:08:58.211Z,100513.94
2018-10-06T00:11:28.635Z,100512.59
2018-10-06T00:14:00.396Z,100508.56
2018-10-06T00:16:30.618Z,100521.48
2018-10-06T00:19:01.457Z,100519.31
2018-10-06T00:21:31.675Z,100524.06
2018-10-06T00:24:01.901Z,100520.02
2018-10-06T00:26:32.325Z,100529.77
2018-10-06T00:29:02.653Z,100519.02
2018-10-06T00:31:32.993Z,100526.97
2018-10-06T00:34:03.709Z,100521.37
2018-10-06T00:36:34.185Z,100524.77
2018-10-06T00:39:05.389Z,100514.38
2018-10-06T00:41:36.632Z,100509.48
2018-10-06T00:45:36.454Z,100511.69
2018-10-06T00:48:07.808Z,100508.14
2018-10-06T00:50:37.826Z,100510.61
2018-10-06T00:53:09.378Z,100519.88
2018-10-06T00:55:40.012Z,100508.63
2018-10-06T00:58:10.543Z,100508.63
2018-10-06T01:00:41.274Z,100509.48
2018-10-06T01:03:11.910Z,100505.45
2018-10-06T01:05:42.027Z,100506.80
2018-10-06T01:08:12.466Z,100504.11
2018-10-06T01:10:42.992Z,100492.34
2018-10-06T01:13:13.403Z,100498.58
2018-10-06T01:15:44.863Z,100494.55
2018-10-06T01:18:15.300Z,100491.86
2018-10-06T01:20:45.517Z,100487.83
2018-10-06T01:23:16.045Z,100485.99
2018-10-06T01:25:46.576Z,100481.96
2018-10-06T01:28:17.004Z,100486.48
2018-10-06T01:30:47.334Z,100484.28
2018-10-06T01:33:18.065Z,100474.38
2018-10-06T01:35:48.695Z,100481.59
2018-10-06T01:38:19.553Z,100478.91
2018-10-06T01:40:50.168Z,100483.79
2018-10-06T01:43:21.208Z,100476.73
2018-10-06T01:45:51.745Z,100484.28
2018-10-06T01:48:22.573Z,100481.59
2018-10-06T01:50:53.601Z,100481.10
2018-10-06T01:53:23.948Z,100480.25
2018-10-06T01:55:54.372Z,100482.11
2018-10-06T01:58:24.597Z,100479.91
2018-10-06T02:00:55.238Z,100470.50
2018-10-06T02:03:25.965Z,100469.64
2018-10-06T02:05:56.293Z,100467.81
2018-10-06T02:08:26.920Z,100459.74
2018-10-06T02:10:57.656Z,100457.91
2018-10-06T02:13:27.768Z,100453.36
2018-10-06T02:15:58.311Z,100455.22
2018-10-06T02:18:29.250Z,100455.22
2018-10-06T02:20:59.983Z,100462.44
2018-10-06T02:23:30.713Z,100462.44
2018-10-06T02:26:01.852Z,100457.55
2018-10-06T02:28:33.020Z,100456.56
2018-10-06T02:31:03.643Z,100455.70
2018-10-06T02:33:34.270Z,100451.67
2018-10-06T02:36:04.897Z,100457.91
2018-10-06T02:38:35.254Z,100462.44
2018-10-06T02:41:06.781Z,100462.44
2018-10-06T02:43:37.122Z,100458.40
2018-10-06T02:46:07.535Z,100450.67
2018-10-06T02:48:37.983Z,100448.84
2018-10-06T02:51:08.501Z,100449.32
2018-10-06T02:53:38.825Z,100457.27
2018-10-06T02:56:09.145Z,100460.45
2018-10-06T02:58:40.195Z,100458.61
2018-10-06T03:01:12.049Z,100451.89
2018-10-06T03:03:42.489Z,100452.23
2018-10-06T03:06:13.096Z,100444.69
2018-10-06T03:08:43.643Z,100444.16
2018-10-06T03:11:14.107Z,100442.81
2018-10-06T03:13:44.500Z,100443.70
2018-10-06T03:16:15.121Z,100437.44
2018-10-06T03:18:46.074Z,100434.66
2018-10-06T03:21:16.705Z,100431.48
2018-10-06T03:23:48.461Z,100425.73
2018-10-06T03:26:18.996Z,100432.46
2018-10-06T03:28:49.519Z,100425.25
2018-10-06T03:31:21.278Z,100436.38
2018-10-06T03:33:52.205Z,100430.14
2018-10-06T03:36:22.853Z,100425.25
2018-10-06T03:38:53.481Z,100429.28
2018-10-06T03:41:24.833Z,100424.77
2018-10-06T03:43:55.057Z,100422.08
2018-10-06T03:46:25.377Z,100425.62
2018-10-06T03:48:56.012Z,100421.92
2018-10-06T03:51:26.851Z,100425.95
2018-10-06T03:53:57.084Z,100422.41
2018-10-06T03:56:27.602Z,100415.69
2018-10-06T03:58:58.337Z,100409.81
2018-10-06T04:01:28.875Z,100407.13
2018-10-06T04:03:59.813Z,100410.67
2018-10-06T04:06:30.850Z,100407.13
2018-10-06T04:09:01.275Z,100400.89
2018-10-06T04:11:32.522Z,100399.55
2018-10-06T04:14:03.056Z,100403.59
2018-10-06T04:16:33.480Z,100397.38
2018-10-06T04:19:04.227Z,100399.55
2018-10-06T04:21:39.568Z,100400.89
2018-10-06T04:24:10.294Z,100405.78
2018-10-06T04:26:40.831Z,100401.42
2018-10-06T04:29:11.867Z,100404.11
2018-10-06T04:31:42.397Z,100404.93
2018-10-06T04:34:12.932Z,100404.93
2018-10-06T04:36:43.766Z,100396.04
2018-10-06T04:39:14.709Z,100384.91
2018-10-06T04:41:45.631Z,100391.15
2018-10-06T04:44:16.677Z,100395.52
2018-10-06T04:46:47.524Z,100400.56
2018-10-06T04:49:18.467Z,100399.22
2018-10-06T04:51:49.410Z,100397.88
2018-10-06T04:54:19.832Z,100387.61
2018-10-06T04:56:50.766Z,100383.94
2018-10-06T04:59:21.305Z,100382.59
2018-10-06T05:01:51.954Z,100388.95
2018-10-06T05:04:22.671Z,100385.77
2018-10-06T05:06:53.917Z,100382.23
2018-10-06T05:09:24.851Z,100384.06
2018-10-06T05:11:55.708Z,100387.11
2018-10-06T05:14:25.920Z,100388.46
2018-10-06T05:16:56.830Z,100385.28
2018-10-06T05:19:27.691Z,100391.48
2018-10-06T05:21:57.908Z,100391.64
2018-10-06T05:24:28.143Z,100387.97
2018-10-06T05:26:59.182Z,100386.63
2018-10-06T05:29:29.945Z,100382.07
2018-10-06T05:32:00.246Z,100385.62
2018-10-06T05:34:30.981Z,100387.45
2018-10-06T05:37:01.313Z,100391.85
2018-10-06T05:39:32.028Z,100389.16
2018-10-06T05:42:03.189Z,100386.47
2018-10-06T05:44:33.819Z,100385.13
2018-10-06T05:47:04.548Z,100378.41
2018-10-06T05:49:35.385Z,100377.42
2018-10-06T05:52:06.437Z,100380.12
2018-10-06T05:54:37.278Z,100372.54
2018-10-06T05:57:08.306Z,100371.19
2018-10-06T06:01:08.238Z,100382.28
2018-10-06T06:03:38.667Z,100377.55
2018-10-06T06:06:08.888Z,100379.91
2018-10-06T06:08:40.131Z,100377.22
2018-10-06T06:11:10.557Z,100380.73
2018-10-06T06:13:41.091Z,100388.80
2018-10-06T06:16:11.735Z,100387.45
2018-10-06T06:18:41.947Z,100382.93
2018-10-06T06:21:12.173Z,100387.81
2018-10-06T06:23:43.117Z,100397.72
2018-10-06T06:26:14.050Z,100397.23
2018-10-06T06:28:44.374Z,100397.23
2018-10-06T06:31:15.656Z,100399.92
2018-10-06T06:33:46.148Z,100403.95
2018-10-06T06:36:16.781Z,100399.43
2018-10-06T06:38:47.518Z,100397.59
2018-10-06T06:41:19.075Z,100405.66
2018-10-06T06:43:49.952Z,100401.27
2018-10-06T06:46:20.432Z,100400.28
2018-10-06T06:48:50.976Z,100401.11
2018-10-06T06:51:22.223Z,100399.43
2018-10-06T06:53:52.852Z,100400.28
2018-10-06T06:56:23.487Z,100401.11
2018-10-06T06:58:54.328Z,100399.43
2018-10-06T07:01:25.503Z,100397.93
2018-10-06T07:03:55.689Z,100403.31
2018-10-06T07:06:26.741Z,100402.98
2018-10-06T07:08:57.465Z,100406.16
2018-10-06T07:11:28.102Z,100402.12
2018-10-06T07:13:58.829Z,100399.77
2018-10-06T07:16:29.876Z,100402.98
2018-10-06T07:19:00.411Z,100398.94
2018-10-06T07:21:31.556Z,100395.89
2018-10-06T07:24:02.185Z,100394.91
2018-10-06T07:26:33.238Z,100398.94
2018-10-06T07:29:05.499Z,100402.98
2018-10-06T07:31:36.231Z,100402.98
2018-10-06T07:34:06.867Z,100401.62
2018-10-06T07:36:37.300Z,100400.28
2018-10-06T07:39:08.746Z,100402.98
2018-10-06T07:41:38.969Z,100404.66
2018-10-06T07:44:09.607Z,100401.97
2018-10-06T07:46:40.231Z,100401.11
2018-10-06T07:49:10.980Z,100395.89
2018-10-06T07:51:41.817Z,100397.08
2018-10-06T07:54:12.130Z,100402.45
2018-10-06T07:56:42.684Z,100402.98
2018-10-06T07:59:13.044Z,100406.00
2018-10-06T08:01:43.617Z,100402.82
2018-10-06T08:04:13.740Z,100400.98
2018-10-06T08:06:44.060Z,100401.20
2018-10-06T08:09:15.002Z,100400.19
2018-10-06T08:11:45.732Z,100407.65
2018-10-06T08:14:16.065Z,100408.84
2018-10-06T08:16:46.696Z,100411.04
2018-10-06T08:19:17.530Z,100414.92
2018-10-06T08:21:48.066Z,100416.64
2018-10-06T08:24:18.488Z,100416.48
2018-10-06T08:26:49.633Z,100417.70
2018-10-06T08:29:20.375Z,100413.52
2018-10-06T08:31:50.901Z,100403.45
2018-10-06T08:34:21.634Z,100410.91
2018-10-06T08:36:51.652Z,100408.44
2018-10-06T08:39:22.592Z,100409.26
2018-10-06T08:41:53.025Z,100418.06
2018-10-06T08:44:23.250Z,100421.09
2018-10-06T08:46:53.984Z,100424.63
2018-10-06T08:49:24.306Z,100431.73
2018-10-06T08:51:54.534Z,100439.16
2018-10-06T08:54:24.746Z,100440.87
2018-10-06T08:56:55.178Z,100444.75
2018-10-06T08:59:25.305Z,100451.69
2018-10-06T09:01:55.629Z,100446.30
2018-10-06T09:04:26.241Z,100453.73
2018-10-06T09:06:56.889Z,100445.12
2018-10-06T09:09:27.311Z,100454.95
2018-10-06T09:11:58.049Z,100454.09
2018-10-06T09:14:28.791Z,100460.83
2018-10-06T09:16:58.908Z,100453.61
2018-10-06T09:19:29.541Z,100460.19
2018-10-06T09:32:02.296Z,100457.49
2018-10-06T09:34:32.518Z,100456.30
2018-10-06T09:37:03.668Z,100450.40
2018-10-06T09:39:34.089Z,100451.25
2018-10-06T09:42:04.748Z,100455.30
2018-10-06T09:44:35.561Z,100450.77
2018-10-06T09:47:06.523Z,100455.30
2018-10-06T09:49:36.928Z,100455.30
2018-10-06T09:52:07.506Z,100447.22
2018-10-06T09:54:37.889Z,100454.80
2018-10-06T09:57:08.317Z,100457.49
2018-10-06T09:59:38.807Z,100451.25
2018-10-06T10:03:13.779Z,100438.66
2018-10-06T10:05:46.193Z,100427.89
2018-10-06T10:08:16.694Z,100422.14
2018-10-06T10:10:48.338Z,100420.47
2018-10-06T10:13:20.313Z,100412.88
2018-10-06T10:15:51.142Z,100419.98
2018-10-06T10:18:21.730Z,100418.75
2018-10-06T10:20:52.104Z,100417.41
2018-10-06T10:23:23.217Z,100420.59
2018-10-06T10:25:53.368Z,100414.38
2018-10-06T10:28:24.006Z,100423.80
2018-10-06T10:30:54.531Z,100432.00
2018-10-06T10:33:24.844Z,100429.80
2018-10-06T10:35:55.184Z,100428.45
2018-10-06T10:38:25.503Z,100432.48
2018-10-06T10:40:55.932Z,100434.84
2018-10-06T10:43:26.461Z,100441.08
2018-10-06T10:45:56.682Z,100436.67
2018-10-06T10:48:27.214Z,100451.69
2018-10-06T10:50:57.436Z,100451.84
2018-10-06T10:53:27.866Z,100450.50
2018-10-06T10:55:58.296Z,100446.95
2018-10-06T10:58:28.827Z,100445.12
2018-10-06T11:00:59.207Z,100438.02
2018-10-06T11:03:30.292Z,100429.46
2018-10-06T11:06:00.519Z,100428.61
2018-10-06T11:08:30.948Z,100433.98
2018-10-06T11:11:01.056Z,100445.61
2018-10-06T11:13:31.495Z,100442.06
2018-10-06T11:17:31.422Z,100447.80
2018-10-06T11:20:02.105Z,100442.22
2018-10-06T11:22:32.381Z,100438.67
2018-10-06T11:25:02.606Z,100429.73
2018-10-06T11:27:32.723Z,100430.11
2018-10-06T11:30:04.079Z,100418.98
2018-10-06T11:32:34.702Z,100422.52
2018-10-06T11:35:05.138Z,100422.16
2018-10-06T11:37:35.865Z,100422.52
2018-10-06T11:40:06.397Z,100422.16
2018-10-06T11:42:37.134Z,100434.14
2018-10-06T11:45:07.460Z,100429.25
2018-10-06T11:47:38.092Z,100433.77
2018-10-06T11:50:08.794Z,100433.28
2018-10-06T11:52:39.150Z,100428.55
2018-10-06T11:55:09.794Z,100428.88
2018-10-06T11:57:40.211Z,100428.02
2018-10-06T12:00:10.198Z,100423.66
2018-10-06T12:02:40.355Z,100422.92
2018-10-06T12:05:10.567Z,100421.45
2018-10-06T12:07:41.208Z,100426.34
2018-10-06T12:10:11.731Z,100424.63
2018-10-06T12:12:42.421Z,100422.80
2018-10-06T12:15:12.909Z,100421.95
2018-10-06T12:17:43.323Z,100429.03
2018-10-06T12:20:13.958Z,100343.88
2018-10-06T12:22:44.184Z,100430.23
2018-10-06T12:25:14.510Z,100435.48
2018-10-06T12:27:45.045Z,100438.88
2018-10-06T12:30:15.779Z,100440.71
2018-10-06T12:32:47.226Z,100441.41
2018-10-06T12:35:17.664Z,100437.53
2018-10-06T12:37:48.291Z,100438.60
2018-10-06T12:40:18.817Z,100439.95
2018-10-06T12:42:49.243Z,100440.77
2018-10-06T12:45:19.612Z,100436.40
2018-10-06T12:47:49.685Z,100430.16
2018-10-06T12:50:20.221Z,100430.66
2018-10-06T12:52:51.310Z,100430.31
2018-10-06T12:55:21.897Z,100417.84
2018-10-06T12:57:52.526Z,100421.88
2018-10-06T13:00:23.160Z,100433.01
2018-10-06T13:02:53.584Z,100426.77
2018-10-06T13:05:23.812Z,100421.02
2018-10-06T13:07:54.034Z,100432.64
2018-10-06T13:10:24.259Z,100433.13
2018-10-06T13:12:54.677Z,100432.64
2018-10-06T13:15:25.218Z,100438.02
2018-10-06T13:17:55.742Z,100439.86
2018-10-06T13:20:26.175Z,100440.87
2018-10-06T13:22:56.705Z,100442.22
2018-10-06T13:25:27.433Z,100442.70
2018-10-06T13:27:57.664Z,100438.17
2018-10-06T13:30:28.389Z,100443.19
2018-10-06T13:32:58.908Z,100440.98
2018-10-06T13:35:30.066Z,100443.68
2018-10-06T13:38:00.394Z,100439.16
2018-10-06T13:40:31.436Z,100438.30
2018-10-06T13:43:01.866Z,100431.57
2018-10-06T13:45:32.905Z,100422.64
2018-10-06T13:48:03.017Z,100423.98
2018-10-06T13:50:33.349Z,100421.83
2018-10-06T13:53:03.974Z,100426.84
2018-10-06T13:55:34.204Z,100430.02
2018-10-06T13:58:05.779Z,100419.74
2018-10-06T14:00:36.600Z,100420.23
2018-10-06T14:03:07.229Z,100414.52
2018-10-06T14:05:37.350Z,100414.52
2018-10-06T14:08:08.801Z,100410.81
2018-10-06T14:10:39.148Z,100415.86
2018-10-06T14:13:09.353Z,100415.86
2018-10-06T14:15:39.677Z,100421.24
2018-10-06T14:18:10.105Z,100413.66
2018-10-06T14:20:40.945Z,100413.30
2018-10-06T14:23:11.268Z,100407.09
2018-10-06T14:25:41.795Z,100405.75
2018-10-06T14:28:12.242Z,100408.44
2018-10-06T14:30:42.959Z,100405.38
2018-10-06T14:33:14.106Z,100409.91
2018-10-06T14:35:44.532Z,100412.75
2018-10-06T14:38:15.885Z,100413.60
2018-10-06T14:40:47.025Z,100411.89
2018-10-06T14:43:17.046Z,100425.50
2018-10-06T14:45:47.470Z,100423.63
2018-10-06T14:48:18.211Z,100419.26
2018-10-06T14:50:48.740Z,100421.09
2018-10-06T14:53:19.266Z,100423.30
2018-10-06T14:55:49.493Z,100425.28
2018-10-06T14:58:19.717Z,100422.93
2018-10-06T15:00:49.933Z,100422.59
2018-10-06T15:03:20.410Z,100436.53
2018-10-06T15:05:51.205Z,100432.98
2018-10-06T15:08:21.318Z,100432.12
2018-10-06T15:10:52.063Z,100415.66
2018-10-06T15:13:23.307Z,100418.34
2018-10-06T15:15:54.073Z,100415.14
2018-10-06T15:18:25.290Z,100423.36
2018-10-06T15:20:55.570Z,100417.61
2018-10-06T15:23:26.138Z,100418.47
2018-10-06T15:25:56.786Z,100417.28
2018-10-06T15:28:27.301Z,100411.04
2018-10-06T15:30:57.630Z,100414.59
2018-10-06T15:33:27.657Z,100415.56
2018-10-06T15:35:58.678Z,100417.40
2018-10-06T15:38:29.676Z,100423.27
2018-10-06T15:41:00.880Z,100422.29
2018-10-06T15:43:31.408Z,100415.56
2018-10-06T15:46:02.152Z,100415.20
2018-10-06T15:48:32.574Z,100417.89
2018-10-06T15:51:02.832Z,100432.19
2018-10-06T15:53:34.259Z,100427.82
2018-10-06T15:56:05.188Z,100435.37
2018-10-06T15:58:36.127Z,100431.00
2018-10-06T16:01:06.866Z,100420.24
2018-10-06T16:03:37.389Z,100427.30
2018-10-06T16:06:08.123Z,100429.66
2018-10-06T16:08:40.396Z,100438.58
2018-10-06T16:11:10.863Z,100435.89
2018-10-06T16:13:41.836Z,100439.92
2018-10-06T16:16:12.604Z,100440.75
2018-10-06T16:18:43.234Z,100446.28
2018-10-06T16:21:13.954Z,100439.07
2018-10-06T16:23:44.498Z,100436.87
2018-10-06T16:26:14.827Z,100438.58
2018-10-06T16:28:45.149Z,100439.07
2018-10-06T16:31:15.885Z,100438.70
2018-10-06T16:33:46.123Z,100443.59
2018-10-06T16:36:17.050Z,100439.56
2018-10-06T16:38:47.583Z,100443.59
2018-10-06T16:41:18.073Z,100444.08
2018-10-06T16:43:48.230Z,100446.77
2018-10-06T16:46:19.273Z,100458.88
2018-10-06T16:48:49.595Z,100459.73
2018-10-06T16:51:19.722Z,100457.04
2018-10-06T16:53:50.137Z,100460.59
2018-10-06T16:56:21.291Z,100461.08
2018-10-06T16:58:51.713Z,100458.88
2018-10-06T17:01:22.172Z,100449.45
2018-10-06T17:03:52.475Z,100444.08
2018-10-06T17:06:22.842Z,100443.22
2018-10-06T17:08:54.156Z,100444.57
2018-10-06T17:11:24.674Z,100441.39
2018-10-06T17:13:55.113Z,100435.16
2018-10-06T17:16:25.323Z,100437.02
2018-10-06T17:18:55.747Z,100435.16
2018-10-06T17:21:26.591Z,100431.64
2018-10-06T17:23:57.135Z,100435.16
2018-10-06T17:26:27.761Z,100436.50
2018-10-06T17:28:58.336Z,100441.05
2018-10-06T17:31:29.030Z,100437.36
2018-10-06T17:33:59.444Z,100436.16
2018-10-06T17:36:30.078Z,100440.90
2018-10-06T17:39:01.431Z,100441.39
2018-10-06T17:41:32.163Z,100444.08
2018-10-06T17:44:03.224Z,100445.58
2018-10-06T17:46:34.152Z,100449.45
2018-10-06T17:49:05.817Z,100452.30
2018-10-06T17:51:36.853Z,100453.64
2018-10-06T17:54:07.781Z,100454.98
2018-10-06T17:56:38.755Z,100459.36
2018-10-06T17:59:10.904Z,100455.97
2018-10-06T18:01:41.730Z,100461.72
2018-10-06T18:04:12.503Z,100446.92
2018-10-06T18:06:43.100Z,100441.66
2018-10-06T18:09:14.166Z,100448.39
2018-10-06T18:11:44.492Z,100450.10
2018-10-06T18:14:15.309Z,100444.72
2018-10-06T18:16:46.245Z,100455.97
2018-10-06T18:19:16.659Z,100450.10
2018-10-06T18:21:47.314Z,100454.98
2018-10-06T18:24:18.142Z,100452.30
2018-10-06T18:26:49.080Z,100458.02
2018-10-06T18:29:19.537Z,100465.11
2018-10-06T18:31:51.468Z,100458.38
2018-10-06T18:34:23.224Z,100455.70
2018-10-06T18:36:54.056Z,100445.42
2018-10-06T18:39:24.903Z,100441.27
2018-10-06T18:41:55.639Z,100442.09
2018-10-06T18:44:26.377Z,100447.47
2018-10-06T18:46:56.702Z,100450.04
2018-10-06T18:49:34.187Z,100455.42
2018-10-06T18:52:04.526Z,100461.13
2018-10-06T18:54:34.939Z,100460.16
2018-10-06T18:57:06.601Z,100453.59
2018-10-06T18:59:37.025Z,100466.88
2018-10-06T19:02:07.458Z,100474.09
2018-10-06T19:04:38.394Z,100481.56
2018-10-06T19:07:09.033Z,100479.20
2018-10-06T19:09:39.974Z,100479.69
2018-10-06T19:12:11.013Z,100480.06
2018-10-06T19:14:41.847Z,100483.61
2018-10-06T19:17:13.415Z,100482.11
2018-10-06T19:19:43.735Z,100491.52
2018-10-06T19:22:14.255Z,100489.32
2018-10-06T19:24:44.902Z,100491.03
2018-10-06T19:27:15.321Z,100493.72
2018-10-06T19:29:45.950Z,100494.09
2018-10-06T19:32:16.687Z,100495.92
2018-10-06T19:34:47.734Z,100489.20
2018-10-06T19:37:18.260Z,100498.95
2018-10-06T19:39:48.738Z,100503.36
2018-10-06T19:42:19.425Z,100501.16
2018-10-06T19:44:50.361Z,100500.18
2018-10-06T19:47:21.096Z,100505.19
2018-10-06T19:49:51.735Z,100503.36
2018-10-06T19:52:22.061Z,100506.91
2018-10-06T19:54:52.687Z,100505.55
2018-10-06T19:57:24.036Z,100505.07
2018-10-06T19:59:54.665Z,100508.25
2018-10-06T20:02:25.095Z,100506.75
2018-10-06T20:04:55.304Z,100509.44
2018-10-06T20:07:26.164Z,100512.13
2018-10-06T20:09:57.001Z,100516.17
2018-10-06T20:12:27.980Z,100522.77
2018-10-06T20:14:59.180Z,100519.22
2018-10-06T20:17:30.126Z,100508.89
2018-10-06T20:20:00.764Z,100519.72
2018-10-06T20:22:31.373Z,100520.20
2018-10-06T20:25:02.022Z,100525.09
2018-10-06T20:27:32.346Z,100526.28
2018-10-06T20:30:02.978Z,100526.28
2018-10-06T20:32:33.613Z,100523.59
2018-10-06T20:35:04.440Z,100526.28
2018-10-06T20:37:35.182Z,100525.47
2018-10-06T20:40:05.851Z,100527.78
2018-10-06T20:42:36.536Z,100529.50
2018-10-06T20:45:07.695Z,100529.83
2018-10-06T20:47:38.630Z,100528.00
2018-10-06T20:50:09.578Z,100536.56
2018-10-06T20:52:40.310Z,100540.97
2018-10-06T20:55:11.760Z,100542.80
2018-10-06T20:57:42.207Z,100547.69
2018-10-06T21:00:13.235Z,100556.62
2018-10-06T21:02:43.650Z,100550.38
2018-10-06T21:05:14.402Z,100558.45
2018-10-06T21:07:45.338Z,100554.75
2018-10-06T21:10:16.296Z,100558.79
2018-10-06T21:12:47.536Z,100563.20
2018-10-06T21:15:18.677Z,100571.27
2018-10-06T21:20:25.257Z,100573.25
2018-10-06T21:36:56.913Z,100575.57
2018-10-06T21:39:33.380Z,100584.98
2018-10-06T21:42:08.827Z,100579.12
2018-10-06T21:44:44.683Z,100577.77
2018-10-06T21:47:20.448Z,100578.97
2018-10-06T21:49:56.708Z,100578.97
2018-10-06T21:52:30.610Z,100582.02
2018-10-06T21:55:03.393Z,100588.75
2018-10-06T21:57:35.261Z,100594.14
2018-10-06T22:00:07.627Z,100591.81
2018-10-06T22:02:38.360Z,100578.20
2018-10-06T22:05:08.985Z,100588.11
2018-10-06T22:07:39.826Z,100587.78
2018-10-06T22:10:10.565Z,100586.77
2018-10-06T22:12:41.301Z,100590.47
2018-10-06T22:15:12.079Z,100585.42
2018-10-06T22:17:43.280Z,100581.39
2018-10-06T22:20:14.421Z,100576.16
2018-10-06T22:22:45.052Z,100576.00
2018-10-06T22:25:16.191Z,100567.11
2018-10-06T22:27:47.133Z,100568.45
2018-10-06T22:30:17.776Z,100571.14
2018-10-06T22:32:48.504Z,100570.62
2018-10-06T22:35:20.369Z,100569.28
2018-10-06T22:37:51.509Z,100564.42
2018-10-06T22:40:22.660Z,100566.25
2018-10-06T22:42:53.192Z,100568.45
2018-10-06T22:45:23.719Z,100567.59
2018-10-06T22:47:54.346Z,100569.80
2018-10-06T22:50:25.186Z,100562.00
2018-10-06T22:52:56.020Z,100564.42
2018-10-06T22:55:26.769Z,100566.25
2018-10-06T22:57:57.597Z,100559.92
2018-10-06T23:00:28.539Z,100573.47
2018-10-06T23:02:59.328Z,100569.92
2018-10-06T23:05:29.906Z,100571.27
2018-10-06T23:08:00.433Z,100562.12
2018-10-06T23:10:30.971Z,100564.53
2018-10-06T23:13:01.492Z,100558.30
2018-10-06T23:15:32.021Z,100557.44
2018-10-06T23:18:02.655Z,100560.13
2018-10-06T23:20:33.485Z,100557.44
2018-10-06T23:23:04.225Z,100558.30
2018-10-06T23:25:34.968Z,100568.20
2018-10-06T23:28:05.525Z,100567.23
2018-10-06T23:30:36.343Z,100566.37
2018-10-06T23:33:07.563Z,100568.20
2018-10-06T23:35:40.057Z,100567.23
2018-10-06T23:38:11.582Z,100572.61
2018-10-06T23:40:42.450Z,100569.06
2018-10-06T23:43:13.484Z,100561.26
2018-10-06T23:45:44.333Z,100562.70
2018-10-06T23:48:15.162Z,100559.43
2018-10-06T23:50:45.683Z,100565.88
2018-10-06T23:53:16.430Z,100569.92
2018-10-06T23:55:47.261Z,100576.16
2018-10-06T23:58:18.413Z,100576.16
